createdAt,value
2023-05-07T00:00:36.169Z,63.81
2023-05-07T00:03:02.986Z,63.78
2023-05-07T00:05:29.825Z,64.09
2023-05-07T00:07:57.838Z,63.90
2023-05-07T00:10:26.400Z,63.78
2023-05-07T00:12:53.065Z,64.00
2023-05-07T00:15:19.613Z,64.07
2023-05-07T00:17:46.178Z,63.84
2023-05-07T00:20:13.217Z,63.93
2023-05-07T00:22:40.143Z,64.06
2023-05-07T00:25:06.952Z,63.74
2023-05-07T00:27:33.519Z,63.79
2023-05-07T00:30:00.007Z,63.76
2023-05-07T00:32:26.697Z,63.41
2023-05-07T00:34:53.319Z,63.20
2023-05-07T00:37:19.780Z,63.29
2023-05-07T00:39:46.323Z,63.65
2023-05-07T00:42:12.833Z,63.34
2023-05-07T00:44:39.350Z,63.41
2023-05-07T00:47:06.035Z,63.66
2023-05-07T00:49:40.330Z,63.52
2023-05-07T00:52:08.044Z,63.50
2023-05-07T00:54:35.275Z,63.53
2023-05-07T00:57:03.836Z,63.64
2023-05-07T00:59:31.854Z,63.88
2023-05-07T01:01:58.548Z,64.28
2023-05-07T01:04:25.716Z,63.67
2023-05-07T01:06:57.491Z,63.53
2023-05-07T01:09:26.087Z,63.42
2023-05-07T01:11:53.489Z,63.26
2023-05-07T01:14:21.469Z,63.22
2023-05-07T01:16:48.893Z,63.50
2023-05-07T01:19:19.207Z,63.63
2023-05-07T01:21:49.934Z,63.61
2023-05-07T01:24:17.030Z,63.55
2023-05-07T01:26:45.011Z,64.22
2023-05-07T01:29:11.654Z,64.24
2023-05-07T01:31:38.680Z,64.48
2023-05-07T01:34:06.114Z,65.54
2023-05-07T01:36:32.882Z,65.71
2023-05-07T01:39:00.124Z,66.37
2023-05-07T01:41:26.902Z,66.72
2023-05-07T01:43:54.514Z,67.10
2023-05-07T01:46:21.514Z,66.95
2023-05-07T01:48:48.427Z,67.89
2023-05-07T01:51:15.011Z,67.41
2023-05-07T01:53:41.754Z,67.83
2023-05-07T01:56:08.564Z,67.89
2023-05-07T01:58:35.146Z,68.96
2023-05-07T02:01:01.815Z,68.22
2023-05-07T02:03:28.705Z,68.35
2023-05-07T02:05:55.244Z,68.50
2023-05-07T02:08:21.947Z,67.79
2023-05-07T02:10:48.506Z,67.63
2023-05-07T02:13:15.176Z,67.21
2023-05-07T02:15:42.090Z,67.43
2023-05-07T02:18:10.197Z,67.39
2023-05-07T02:20:36.725Z,67.59
2023-05-07T02:23:03.354Z,67.43
2023-05-07T02:25:31.115Z,66.96
2023-05-07T02:27:57.824Z,66.92
2023-05-07T02:30:24.795Z,66.89
2023-05-07T02:32:51.428Z,66.80
2023-05-07T02:35:18.458Z,66.50
2023-05-07T02:37:45.094Z,66.78
2023-05-07T02:40:12.952Z,66.53
2023-05-07T02:42:39.656Z,66.69
2023-05-07T02:45:06.769Z,67.42
2023-05-07T02:47:33.286Z,67.09
2023-05-07T02:49:59.954Z,66.17
2023-05-07T02:52:26.446Z,65.89
2023-05-07T02:54:53.213Z,66.18
2023-05-07T02:57:20.201Z,65.88
2023-05-07T02:59:46.825Z,65.86
2023-05-07T03:02:13.577Z,66.35
2023-05-07T03:04:40.573Z,65.71
2023-05-07T03:07:07.436Z,66.39
2023-05-07T03:09:33.920Z,66.16
2023-05-07T03:12:00.725Z,66.02
2023-05-07T03:14:27.276Z,66.57
2023-05-07T03:16:54.160Z,66.38
2023-05-07T03:19:21.063Z,66.59
2023-05-07T03:21:48.338Z,66.66
2023-05-07T03:24:15.050Z,66.45
2023-05-07T03:26:41.912Z,66.19
2023-05-07T03:29:08.856Z,66.11
2023-05-07T03:31:36.144Z,66.00
2023-05-07T03:34:02.864Z,65.89
2023-05-07T03:36:29.719Z,66.13
2023-05-07T03:38:56.797Z,65.19
2023-05-07T03:41:23.868Z,65.43
2023-05-07T03:43:50.884Z,64.92
2023-05-07T03:46:17.987Z,65.11
2023-05-07T03:48:44.990Z,65.22
2023-05-07T03:51:11.959Z,66.07
2023-05-07T03:53:38.798Z,66.50
2023-05-07T03:56:05.733Z,65.82
2023-05-07T03:58:32.616Z,65.81
2023-05-07T04:00:59.552Z,65.34
2023-05-07T04:03:26.191Z,65.38
2023-05-07T04:05:52.804Z,65.39
2023-05-07T04:08:19.468Z,65.14
2023-05-07T04:10:46.086Z,64.90
2023-05-07T04:13:12.906Z,65.72
2023-05-07T04:15:39.485Z,66.14
2023-05-07T04:18:06.381Z,65.70
2023-05-07T04:20:37.306Z,65.28
2023-05-07T04:23:03.941Z,65.33
2023-05-07T04:25:30.482Z,65.01
2023-05-07T04:27:58.162Z,64.84
2023-05-07T04:30:24.755Z,64.67
2023-05-07T04:32:51.743Z,64.74
2023-05-07T04:35:18.418Z,65.19
2023-05-07T04:37:45.179Z,66.44
2023-05-07T04:40:12.218Z,65.59
2023-05-07T04:42:39.153Z,65.44
2023-05-07T04:45:06.315Z,66.59
2023-05-07T04:47:33.478Z,66.66
2023-05-07T04:50:00.008Z,65.86
2023-05-07T04:52:27.612Z,65.73
2023-05-07T04:54:54.375Z,65.02
2023-05-07T04:57:21.147Z,64.96
2023-05-07T04:59:47.677Z,64.59
2023-05-07T05:02:14.234Z,64.79
2023-05-07T05:04:40.761Z,65.82
2023-05-07T05:07:07.250Z,66.42
2023-05-07T05:09:33.844Z,66.61
2023-05-07T05:12:00.759Z,69.52
2023-05-07T05:14:27.312Z,66.19
2023-05-07T05:16:53.788Z,67.32
2023-05-07T05:19:20.417Z,66.14
2023-05-07T05:21:47.056Z,66.02
2023-05-07T05:24:13.618Z,65.34
2023-05-07T05:26:40.151Z,64.67
2023-05-07T05:29:07.388Z,64.70
2023-05-07T05:31:34.679Z,65.35
2023-05-07T05:34:01.280Z,64.01
2023-05-07T05:36:27.804Z,63.00
2023-05-07T05:38:54.538Z,63.86
2023-05-07T05:41:21.619Z,62.98
2023-05-07T05:43:48.370Z,63.81
2023-05-07T05:46:15.804Z,63.15
2023-05-07T05:48:42.561Z,62.94
2023-05-07T05:51:09.099Z,62.68
2023-05-07T05:53:36.261Z,62.31
2023-05-07T05:56:02.833Z,63.47
2023-05-07T05:58:29.460Z,62.97
2023-05-07T06:00:56.044Z,62.96
2023-05-07T06:03:22.600Z,63.23
2023-05-07T06:05:49.320Z,62.72
2023-05-07T06:08:15.909Z,64.60
2023-05-07T06:10:42.413Z,63.25
2023-05-07T06:13:08.941Z,64.03
2023-05-07T06:15:35.535Z,63.57
2023-05-07T06:18:02.163Z,63.50
2023-05-07T06:20:28.706Z,63.05
2023-05-07T06:22:55.210Z,63.63
2023-05-07T06:25:21.697Z,63.35
2023-05-07T06:27:48.287Z,63.19
2023-05-07T06:30:15.068Z,61.80
2023-05-07T06:32:42.015Z,60.38
2023-05-07T06:35:09.215Z,61.07
2023-05-07T06:37:35.930Z,60.48
2023-05-07T06:40:02.649Z,60.63
2023-05-07T06:42:29.143Z,61.97
2023-05-07T06:44:56.126Z,60.10
2023-05-07T06:47:22.727Z,59.12
2023-05-07T06:49:49.333Z,58.54
2023-05-07T06:52:15.821Z,57.11
2023-05-07T06:54:42.411Z,56.81
2023-05-07T06:57:09.048Z,59.02
2023-05-07T06:59:35.878Z,58.66
2023-05-07T07:02:02.492Z,57.66
2023-05-07T07:04:29.397Z,59.06
2023-05-07T07:06:57.618Z,57.63
2023-05-07T07:09:24.255Z,57.23
2023-05-07T07:11:50.775Z,56.24
2023-05-07T07:14:17.348Z,56.54
2023-05-07T07:16:43.880Z,56.44
2023-05-07T07:19:10.428Z,56.77
2023-05-07T07:21:36.947Z,57.26
2023-05-07T07:24:03.924Z,57.47
2023-05-07T07:26:30.806Z,57.03
2023-05-07T07:28:57.458Z,56.98
2023-05-07T07:31:24.001Z,57.18
2023-05-07T07:33:53.081Z,57.96
2023-05-07T07:36:19.965Z,57.58
2023-05-07T07:38:46.543Z,56.65
2023-05-07T07:41:13.096Z,56.23
2023-05-07T07:43:39.684Z,56.24
2023-05-07T07:46:06.323Z,57.31
2023-05-07T07:48:32.847Z,56.38
2023-05-07T07:50:59.385Z,56.31
2023-05-07T07:53:26.281Z,55.48
2023-05-07T07:55:54.462Z,54.84
2023-05-07T07:58:25.867Z,54.50
2023-05-07T08:00:52.647Z,55.32
2023-05-07T08:03:20.796Z,55.05
2023-05-07T08:05:47.563Z,55.24
2023-05-07T08:08:14.253Z,54.14
2023-05-07T08:10:40.859Z,53.35
2023-05-07T08:13:07.776Z,51.92
2023-05-07T08:15:34.454Z,51.54
2023-05-07T08:18:04.073Z,50.13
2023-05-07T08:20:30.753Z,50.08
2023-05-07T08:22:57.559Z,48.73
2023-05-07T08:25:24.308Z,47.67
2023-05-07T08:27:50.908Z,47.27
2023-05-07T08:30:17.453Z,47.90
2023-05-07T08:32:44.085Z,45.90
2023-05-07T08:35:10.913Z,45.66
2023-05-07T08:37:37.452Z,44.42
2023-05-07T08:40:06.510Z,42.88
2023-05-07T08:42:36.896Z,44.53
2023-05-07T08:45:06.658Z,43.31
2023-05-07T08:47:40.364Z,43.51
2023-05-07T08:50:07.663Z,43.66
2023-05-07T08:52:34.162Z,42.14
2023-05-07T08:55:01.304Z,40.73
2023-05-07T08:57:27.805Z,40.13
2023-05-07T08:59:54.347Z,39.44
2023-05-07T09:02:21.245Z,39.63
2023-05-07T09:04:47.871Z,40.84
2023-05-07T09:07:14.417Z,39.56
2023-05-07T09:09:40.955Z,38.15
2023-05-07T09:12:07.686Z,36.70
2023-05-07T09:14:34.505Z,38.47
2023-05-07T09:17:01.208Z,39.18
2023-05-07T09:19:28.431Z,37.37
2023-05-07T09:22:05.429Z,31.10
2023-05-07T09:24:36.079Z,27.06
2023-05-07T09:27:03.361Z,24.24
2023-05-07T09:29:31.165Z,25.58
2023-05-07T09:31:58.433Z,26.52
2023-05-07T09:34:24.972Z,26.51
2023-05-07T09:36:51.563Z,24.96
2023-05-07T09:39:18.091Z,22.61
2023-05-07T09:41:46.317Z,23.30
2023-05-07T09:44:14.129Z,24.11
2023-05-07T09:46:43.602Z,25.31
2023-05-07T09:49:15.256Z,26.69
2023-05-07T09:51:50.306Z,27.99
2023-05-07T09:54:17.762Z,28.67
2023-05-07T09:56:45.993Z,29.85
2023-05-07T09:59:17.232Z,30.88
2023-05-07T10:01:45.065Z,28.93
2023-05-07T10:04:12.168Z,26.18
2023-05-07T10:06:39.144Z,25.03
2023-05-07T10:09:06.855Z,24.48
2023-05-07T10:11:35.032Z,23.05
2023-05-07T10:14:04.975Z,22.04
2023-05-07T10:16:37.367Z,20.38
2023-05-07T10:19:10.952Z,18.09
2023-05-07T10:21:39.042Z,16.42
2023-05-07T10:24:11.457Z,15.22
2023-05-07T10:26:38.572Z,15.76
2023-05-07T10:29:11.947Z,18.37
2023-05-07T10:31:38.897Z,18.59
2023-05-07T10:34:14.987Z,17.59
2023-05-07T10:36:41.819Z,18.77
2023-05-07T10:39:08.992Z,20.75
2023-05-07T10:41:35.532Z,22.24
2023-05-07T10:44:03.201Z,23.26
2023-05-07T10:46:30.066Z,25.17
2023-05-07T10:49:03.782Z,26.49
2023-05-07T10:51:34.033Z,26.96
2023-05-07T10:54:12.903Z,26.25
2023-05-07T10:56:48.597Z,25.73
2023-05-07T10:59:36.856Z,21.05
2023-05-07T11:02:05.352Z,20.92
2023-05-07T11:04:35.746Z,18.31
2023-05-07T11:07:12.909Z,16.62
2023-05-07T11:09:54.546Z,15.33
2023-05-07T11:12:36.836Z,18.08
2023-05-07T11:15:13.305Z,18.28
2023-05-07T11:18:00.502Z,17.91
2023-05-07T11:20:53.321Z,19.09
2023-05-07T11:23:35.310Z,20.78
2023-05-07T11:26:01.838Z,22.64
2023-05-07T11:28:31.602Z,24.37
2023-05-07T11:30:58.433Z,23.61
2023-05-07T11:33:27.880Z,20.18
2023-05-07T11:35:54.600Z,20.13
2023-05-07T11:38:21.255Z,24.12
2023-05-07T11:40:52.082Z,24.50
2023-05-07T11:43:18.850Z,26.15
2023-05-07T11:45:49.192Z,26.25
2023-05-07T11:48:17.034Z,26.34
2023-05-07T11:50:53.819Z,27.12
2023-05-07T11:53:21.434Z,27.22
2023-05-07T11:55:47.961Z,26.36
2023-05-07T11:58:21.820Z,27.55
2023-05-07T12:00:52.255Z,30.80
2023-05-07T12:03:19.140Z,31.15
2023-05-07T12:05:46.773Z,30.56
2023-05-07T12:08:20.403Z,31.96
2023-05-07T12:10:48.775Z,31.35
2023-05-07T12:13:23.083Z,32.01
2023-05-07T12:16:08.207Z,33.28
2023-05-07T12:18:38.157Z,33.36
2023-05-07T12:21:05.646Z,33.90
2023-05-07T12:23:32.276Z,32.94
2023-05-07T12:26:00.350Z,32.23
2023-05-07T12:28:27.056Z,31.97
2023-05-07T12:30:53.863Z,31.05
2023-05-07T12:33:25.571Z,31.31
2023-05-07T12:35:54.655Z,33.57
2023-05-07T12:38:21.731Z,32.39
2023-05-07T12:40:52.085Z,32.13
2023-05-07T12:43:22.603Z,30.49
2023-05-07T12:45:51.302Z,32.49
2023-05-07T12:48:18.521Z,31.74
2023-05-07T12:50:45.111Z,33.38
2023-05-07T12:53:13.384Z,33.51
2023-05-07T12:55:48.404Z,33.91
2023-05-07T12:58:20.119Z,35.43
2023-05-07T13:00:49.428Z,36.34
2023-05-07T13:03:27.549Z,37.19
2023-05-07T13:05:58.937Z,36.82
2023-05-07T13:08:27.995Z,35.61
2023-05-07T13:10:54.684Z,36.85
2023-05-07T13:13:22.102Z,37.74
2023-05-07T13:15:49.225Z,38.09
2023-05-07T13:18:16.231Z,38.62
2023-05-07T13:20:42.876Z,39.83
2023-05-07T13:23:09.596Z,40.74
2023-05-07T13:25:37.136Z,40.49
2023-05-07T13:28:10.842Z,40.46
2023-05-07T13:30:38.189Z,40.88
2023-05-07T13:33:05.437Z,40.91
2023-05-07T13:35:32.165Z,41.62
2023-05-07T13:37:59.131Z,42.17
2023-05-07T13:40:26.169Z,41.70
2023-05-07T13:42:52.885Z,41.85
2023-05-07T13:45:19.851Z,41.00
2023-05-07T13:47:47.685Z,41.91
2023-05-07T13:50:14.645Z,41.66
2023-05-07T13:52:51.262Z,42.18
2023-05-07T13:55:19.158Z,42.20
2023-05-07T13:57:46.011Z,42.56
2023-05-07T14:00:13.737Z,42.33
2023-05-07T14:02:41.394Z,42.44
2023-05-07T14:05:08.603Z,43.12
2023-05-07T14:07:35.292Z,43.61
2023-05-07T14:10:01.980Z,42.66
2023-05-07T14:12:28.587Z,44.16
2023-05-07T14:14:55.148Z,43.65
2023-05-07T14:17:21.825Z,43.51
2023-05-07T14:19:48.545Z,43.26
2023-05-07T14:22:16.386Z,44.28
2023-05-07T14:24:43.881Z,44.32
2023-05-07T14:27:10.622Z,45.39
2023-05-07T14:29:37.274Z,44.74
2023-05-07T14:32:04.389Z,45.21
2023-05-07T14:34:30.944Z,45.83
2023-05-07T14:36:57.507Z,47.64
2023-05-07T14:39:24.033Z,47.69
2023-05-07T14:41:50.762Z,48.18
2023-05-07T14:44:17.328Z,48.94
2023-05-07T14:46:44.161Z,50.35
2023-05-07T14:49:17.836Z,48.29
2023-05-07T14:51:46.277Z,48.58
2023-05-07T14:54:16.424Z,48.27
2023-05-07T14:56:43.228Z,48.38
2023-05-07T14:59:10.002Z,47.81
2023-05-07T15:01:37.403Z,46.80
2023-05-07T15:04:08.513Z,46.99
2023-05-07T15:06:35.124Z,46.82
2023-05-07T15:09:01.780Z,47.28
2023-05-07T15:11:28.337Z,47.17
2023-05-07T15:13:54.970Z,46.96
2023-05-07T15:16:21.740Z,46.96
2023-05-07T15:18:48.398Z,45.85
2023-05-07T15:21:17.753Z,45.06
2023-05-07T15:23:45.447Z,45.11
2023-05-07T15:26:12.046Z,44.16
2023-05-07T15:28:40.450Z,43.91
2023-05-07T15:31:07.989Z,44.63
2023-05-07T15:33:34.755Z,44.69
2023-05-07T15:36:01.648Z,44.55
2023-05-07T15:38:28.255Z,44.26
2023-05-07T15:40:55.521Z,44.37
2023-05-07T15:43:22.559Z,44.45
2023-05-07T15:45:49.140Z,43.98
2023-05-07T15:48:15.755Z,44.02
2023-05-07T15:50:42.884Z,44.59
2023-05-07T15:53:10.439Z,44.14
2023-05-07T15:55:37.408Z,44.20
2023-05-07T15:58:05.972Z,43.37
2023-05-07T16:00:32.843Z,43.61
2023-05-07T16:02:59.386Z,44.23
2023-05-07T16:05:25.964Z,44.27
2023-05-07T16:07:52.934Z,44.29
2023-05-07T16:10:19.502Z,44.37
2023-05-07T16:12:46.098Z,44.28
2023-05-07T16:15:12.919Z,45.25
2023-05-07T16:17:39.739Z,44.32
2023-05-07T16:20:09.117Z,44.05
2023-05-07T16:22:36.745Z,44.84
2023-05-07T16:25:04.820Z,44.83
2023-05-07T16:27:31.362Z,45.03
2023-05-07T16:29:58.147Z,45.40
2023-05-07T16:32:25.121Z,45.54
2023-05-07T16:34:51.777Z,45.06
2023-05-07T16:37:18.438Z,46.27
2023-05-07T16:39:45.001Z,45.91
2023-05-07T16:42:11.493Z,46.44
2023-05-07T16:44:38.027Z,46.49
2023-05-07T16:47:04.577Z,45.85
2023-05-07T16:49:31.374Z,46.24
2023-05-07T16:51:57.907Z,45.44
2023-05-07T16:54:24.478Z,45.49
2023-05-07T16:56:51.104Z,46.19
2023-05-07T16:59:18.169Z,46.24
2023-05-07T17:01:45.524Z,47.18
2023-05-07T17:04:12.431Z,47.31
2023-05-07T17:06:39.123Z,47.09
2023-05-07T17:09:05.734Z,47.69
2023-05-07T17:11:34.030Z,47.08
2023-05-07T17:14:01.718Z,47.51
2023-05-07T17:16:29.513Z,47.08
2023-05-07T17:18:58.968Z,47.01
2023-05-07T17:21:25.580Z,47.69
2023-05-07T17:23:52.316Z,46.81
2023-05-07T17:26:18.886Z,47.30
2023-05-07T17:28:45.363Z,47.60
2023-05-07T17:31:12.000Z,48.74
2023-05-07T17:33:38.665Z,47.31
2023-05-07T17:36:05.971Z,47.62
2023-05-07T17:38:32.558Z,48.43
2023-05-07T17:40:59.195Z,47.80
2023-05-07T17:43:26.181Z,47.88
2023-05-07T17:45:52.781Z,47.86
2023-05-07T17:48:19.400Z,48.33
2023-05-07T17:50:46.175Z,49.09
2023-05-07T17:53:12.739Z,49.34
2023-05-07T17:55:43.904Z,49.53
2023-05-07T17:58:13.668Z,50.52
2023-05-07T18:00:40.261Z,50.17
2023-05-07T18:03:07.052Z,50.80
2023-05-07T18:05:36.696Z,49.88
2023-05-07T18:08:03.497Z,49.32
2023-05-07T18:10:30.038Z,50.13
2023-05-07T18:12:56.635Z,50.47
2023-05-07T18:15:23.284Z,51.37
2023-05-07T18:17:49.804Z,51.34
2023-05-07T18:20:16.677Z,50.45
2023-05-07T18:22:43.330Z,50.43
2023-05-07T18:25:10.138Z,50.07
2023-05-07T18:27:36.717Z,50.42
2023-05-07T18:30:04.119Z,50.66
2023-05-07T18:32:30.709Z,49.95
2023-05-07T18:34:57.491Z,50.32
2023-05-07T18:37:26.614Z,50.57
2023-05-07T18:39:53.425Z,49.63
2023-05-07T18:42:20.238Z,49.47
2023-05-07T18:44:47.153Z,49.62
2023-05-07T18:47:13.924Z,49.21
2023-05-07T18:49:40.534Z,49.85
2023-05-07T18:52:07.214Z,50.06
2023-05-07T18:54:33.851Z,49.78
2023-05-07T18:57:00.416Z,49.68
2023-05-07T18:59:26.999Z,49.67
2023-05-07T19:01:53.656Z,49.94
2023-05-07T19:04:20.333Z,50.30
2023-05-07T19:06:47.236Z,49.48
2023-05-07T19:09:14.486Z,49.67
2023-05-07T19:11:41.154Z,49.77
2023-05-07T19:14:07.849Z,49.51
2023-05-07T19:16:34.585Z,49.83
2023-05-07T19:19:01.104Z,49.68
2023-05-07T19:21:28.680Z,49.37
2023-05-07T19:23:57.346Z,49.22
2023-05-07T19:26:24.741Z,49.88
2023-05-07T19:29:06.723Z,50.02
2023-05-07T19:31:38.770Z,49.75
2023-05-07T19:34:05.432Z,49.84
2023-05-07T19:36:34.350Z,49.37
2023-05-07T19:39:01.046Z,49.55
2023-05-07T19:41:28.569Z,49.98
2023-05-07T19:43:55.108Z,49.66
2023-05-07T19:46:21.964Z,49.58
2023-05-07T19:48:48.772Z,49.77
2023-05-07T19:51:15.444Z,50.37
2023-05-07T19:53:41.992Z,50.64
2023-05-07T19:56:10.636Z,50.82
2023-05-07T19:58:37.862Z,50.82
2023-05-07T20:01:05.276Z,50.42
2023-05-07T20:03:33.189Z,50.83
2023-05-07T20:05:59.991Z,50.21
2023-05-07T20:08:27.597Z,50.04
2023-05-07T20:10:54.270Z,50.51
2023-05-07T20:13:20.822Z,49.90
2023-05-07T20:15:47.746Z,49.48
2023-05-07T20:18:15.942Z,49.85
2023-05-07T20:20:42.543Z,50.82
2023-05-07T20:23:09.198Z,50.35
2023-05-07T20:25:35.932Z,51.34
2023-05-07T20:28:02.882Z,52.34
2023-05-07T20:30:29.776Z,52.59
2023-05-07T20:32:56.467Z,51.33
2023-05-07T20:35:23.406Z,52.15
2023-05-07T20:37:49.975Z,52.79
2023-05-07T20:40:16.661Z,51.73
2023-05-07T20:42:43.263Z,51.43
2023-05-07T20:45:10.646Z,51.22
2023-05-07T20:47:37.228Z,51.69
2023-05-07T20:50:04.048Z,51.04
2023-05-07T20:52:30.761Z,50.84
2023-05-07T20:54:57.379Z,51.88
2023-05-07T20:57:24.160Z,51.47
2023-05-07T20:59:50.822Z,51.78
2023-05-07T21:02:17.355Z,51.60
2023-05-07T21:04:44.111Z,51.94
2023-05-07T21:07:10.788Z,52.62
2023-05-07T21:09:37.465Z,52.05
2023-05-07T21:12:04.254Z,51.56
2023-05-07T21:14:32.262Z,50.90
2023-05-07T21:17:00.386Z,50.85
2023-05-07T21:19:27.303Z,51.21
2023-05-07T21:21:57.639Z,50.71
2023-05-07T21:24:24.953Z,50.87
2023-05-07T21:26:55.804Z,50.47
2023-05-07T21:29:23.700Z,50.64
2023-05-07T21:31:50.665Z,50.33
2023-05-07T21:34:17.244Z,51.36
2023-05-07T21:36:43.849Z,50.08
2023-05-07T21:39:11.017Z,50.99
2023-05-07T21:41:37.753Z,52.14
2023-05-07T21:44:05.471Z,52.03
2023-05-07T21:46:33.020Z,51.39
2023-05-07T21:48:59.587Z,51.39
2023-05-07T21:51:26.248Z,51.14
2023-05-07T21:53:52.786Z,51.87
2023-05-07T21:56:19.551Z,51.59
2023-05-07T21:58:46.056Z,51.23
2023-05-07T22:01:12.954Z,51.76
2023-05-07T22:03:40.461Z,51.09
2023-05-07T22:06:07.227Z,51.36
2023-05-07T22:08:33.709Z,50.93
2023-05-07T22:11:00.313Z,51.50
2023-05-07T22:13:27.210Z,51.24
2023-05-07T22:15:58.102Z,51.09
2023-05-07T22:18:26.152Z,50.45
2023-05-07T22:20:52.811Z,51.05
2023-05-07T22:23:19.660Z,50.72
2023-05-07T22:25:46.182Z,50.22
2023-05-07T22:28:12.997Z,50.42
2023-05-07T22:30:39.651Z,51.69
2023-05-07T22:33:06.364Z,51.17
2023-05-07T22:35:32.973Z,50.69
2023-05-07T22:37:59.565Z,51.21
2023-05-07T22:40:26.129Z,50.93
2023-05-07T22:42:52.787Z,50.88
2023-05-07T22:45:19.282Z,50.76
2023-05-07T22:47:45.848Z,50.71
2023-05-07T22:50:12.859Z,51.14
2023-05-07T22:52:39.632Z,51.31
2023-05-07T22:55:06.714Z,51.54
2023-05-07T22:57:33.228Z,51.23
2023-05-07T22:59:59.722Z,51.99
2023-05-07T23:02:28.860Z,51.65
2023-05-07T23:04:58.708Z,52.05
2023-05-07T23:07:25.218Z,51.86
2023-05-07T23:09:52.293Z,51.74
2023-05-07T23:12:19.008Z,51.46
2023-05-07T23:14:45.782Z,52.40
2023-05-07T23:17:12.376Z,52.70
2023-05-07T23:19:39.098Z,52.44
2023-05-07T23:22:05.724Z,52.32
2023-05-07T23:24:32.593Z,51.64
2023-05-07T23:26:59.104Z,51.20
2023-05-07T23:29:26.179Z,51.54
2023-05-07T23:31:52.854Z,51.35
2023-05-07T23:34:23.978Z,50.99
2023-05-07T23:36:51.344Z,52.81
2023-05-07T23:39:18.618Z,51.67
2023-05-07T23:41:45.390Z,51.35
2023-05-07T23:44:12.071Z,51.69
2023-05-07T23:46:38.786Z,51.15
2023-05-07T23:49:05.444Z,51.25
2023-05-07T23:51:32.111Z,50.76
2023-05-07T23:53:58.631Z,51.05
2023-05-07T23:56:25.651Z,50.79
2023-05-07T23:58:53.556Z,50.48
